createdAt,value
2022-12-23T00:00:47.982Z,100224.84
2022-12-23T00:03:50.380Z,100222.47
2022-12-23T00:07:12.013Z,100228.03
2022-12-23T00:10:13.875Z,100221.16
2022-12-23T00:13:30.032Z,100219.91
2022-12-23T00:16:45.138Z,100225.00
2022-12-23T00:19:47.065Z,100231.75
2022-12-23T00:23:08.983Z,100234.16
2022-12-23T00:26:23.778Z,100232.53
2022-12-23T00:29:32.045Z,100235.19
2022-12-23T00:32:40.641Z,100231.25
2022-12-23T00:35:50.092Z,100232.31
2022-12-23T00:39:00.039Z,100230.41
2022-12-23T00:42:16.068Z,100222.25
2022-12-23T00:45:24.645Z,100215.94
2022-12-23T00:48:39.006Z,100210.72
2022-12-23T00:51:48.038Z,100212.66
2022-12-23T00:55:03.410Z,100214.38
2022-12-23T00:58:12.042Z,100212.66
2022-12-23T01:01:27.285Z,100198.47
2022-12-23T01:04:36.072Z,100220.75
2022-12-23T01:07:46.874Z,100218.81
2022-12-23T01:10:56.052Z,100218.81
2022-12-23T01:14:04.773Z,100207.09
2022-12-23T01:17:14.164Z,100206.31
2022-12-23T01:20:36.026Z,100206.59
2022-12-23T01:23:38.233Z,100206.47
2022-12-23T01:26:53.011Z,100198.47
2022-12-23T01:29:58.027Z,100191.72
2022-12-23T01:33:13.118Z,100190.03
2022-12-23T01:36:15.185Z,100186.63
2022-12-23T01:39:30.053Z,100191.00
2022-12-23T01:42:39.031Z,100190.16
2022-12-23T01:45:48.035Z,100187.84
2022-12-23T01:48:59.058Z,100170.56
2022-12-23T01:52:08.085Z,100176.41
2022-12-23T01:55:18.208Z,100180.44
2022-12-23T01:58:39.344Z,100175.50
2022-12-23T02:01:54.233Z,100178.72
2022-12-23T02:05:00.545Z,100172.69
2022-12-23T02:08:15.108Z,100163.94
2022-12-23T02:11:38.093Z,100171.19
2022-12-23T02:15:21.082Z,100153.03
2022-12-23T02:19:02.333Z,100160.66
2022-12-23T02:22:42.036Z,100151.84
2022-12-23T02:26:30.025Z,100154.12
2022-12-23T02:30:08.066Z,100149.44
2022-12-23T02:33:32.098Z,100156.19
2022-12-23T02:37:00.094Z,100160.81
2022-12-23T02:40:21.084Z,100159.47
2022-12-23T02:43:53.091Z,100150.84
2022-12-23T02:47:07.045Z,100154.00
2022-12-23T02:50:30.061Z,100148.87
2022-12-23T02:53:47.096Z,100152.63
2022-12-23T02:57:04.115Z,100153.88
2022-12-23T03:00:14.056Z,100160.31
2022-12-23T03:03:31.138Z,100162.72
2022-12-23T03:06:41.835Z,100155.47
2022-12-23T03:10:13.260Z,100157.38
2022-12-23T03:13:56.078Z,100160.88
2022-12-23T03:17:40.060Z,100165.94
2022-12-23T03:21:20.126Z,100165.63
2022-12-23T03:24:53.111Z,100164.19
2022-12-23T03:28:21.413Z,100161.44
2022-12-23T03:31:40.183Z,100152.00
2022-12-23T03:34:52.244Z,100152.50
2022-12-23T03:38:03.125Z,100147.03
2022-12-23T03:41:26.191Z,100143.16
2022-12-23T03:44:35.696Z,100148.84
2022-12-23T03:47:57.161Z,100150.94
2022-12-23T03:51:06.785Z,100149.13
2022-12-23T03:54:26.096Z,100142.94
2022-12-23T03:57:45.246Z,100140.31
2022-12-23T04:01:18.146Z,100135.87
2022-12-23T04:04:46.099Z,100141.44
2022-12-23T04:08:03.627Z,100130.16
2022-12-23T04:11:15.134Z,100131.75
2022-12-23T04:14:24.007Z,100130.88
2022-12-23T04:17:33.155Z,100124.16
2022-12-23T04:20:49.494Z,100127.66
2022-12-23T04:23:58.146Z,100121.50
2022-12-23T04:27:14.168Z,100124.87
2022-12-23T04:30:26.683Z,100116.31
2022-12-23T04:33:40.136Z,100122.34
2022-12-23T04:36:55.109Z,100117.16
2022-12-23T04:39:57.058Z,100129.72
2022-12-23T04:43:12.114Z,100125.88
2022-12-23T04:46:14.102Z,100128.13
2022-12-23T04:49:29.120Z,100133.13
2022-12-23T04:52:38.113Z,100131.31
2022-12-23T04:55:51.031Z,100127.69
2022-12-23T04:59:00.208Z,100128.41
2022-12-23T05:02:09.534Z,100133.72
2022-12-23T05:05:18.148Z,100132.63
2022-12-23T05:08:27.828Z,100129.38
2022-12-23T05:11:43.167Z,100125.25
2022-12-23T05:14:45.068Z,100122.97
2022-12-23T05:18:00.272Z,100141.87
2022-12-23T05:21:11.792Z,100137.97
2022-12-23T05:24:26.170Z,100139.31
2022-12-23T05:27:34.185Z,100144.03
2022-12-23T05:30:45.576Z,100125.16
2022-12-23T05:33:54.256Z,100132.53
2022-12-23T05:37:02.795Z,100130.47
2022-12-23T05:40:12.139Z,100128.66
2022-12-23T05:43:21.979Z,100114.75
2022-12-23T05:46:30.230Z,100121.28
2022-12-23T05:49:45.221Z,100126.38
2022-12-23T05:52:54.154Z,100137.97
2022-12-23T05:56:05.505Z,100143.03
2022-12-23T05:59:14.202Z,100159.75
2022-12-23T06:02:29.462Z,100165.69
2022-12-23T06:05:46.149Z,100161.47
2022-12-23T06:08:48.077Z,100163.63
2022-12-23T06:12:03.194Z,100155.53
2022-12-23T06:15:15.172Z,100146.69
2022-12-23T06:18:23.844Z,100154.19
2022-12-23T06:21:45.253Z,100114.28
2022-12-23T06:24:54.185Z,100156.75
2022-12-23T06:28:03.064Z,100154.56
2022-12-23T06:31:11.188Z,100150.78
2022-12-23T06:34:22.031Z,100153.81
2022-12-23T06:37:30.136Z,100153.19
2022-12-23T06:40:40.442Z,100152.84
2022-12-23T06:43:54.142Z,100146.78
2022-12-23T06:47:12.159Z,100148.22
2022-12-23T06:50:21.156Z,100160.22
2022-12-23T06:53:30.383Z,100161.19
2022-12-23T06:56:40.177Z,100158.16
2022-12-23T06:59:48.796Z,100172.31
2022-12-23T07:03:00.339Z,100161.81
2022-12-23T07:06:09.069Z,100179.19
2022-12-23T07:09:17.219Z,100178.91
2022-12-23T07:12:32.207Z,100207.84
2022-12-23T07:15:34.265Z,100213.78
2022-12-23T07:18:49.207Z,100211.38
2022-12-23T07:21:57.526Z,100211.84
2022-12-23T07:25:13.245Z,100214.31
2022-12-23T07:28:31.322Z,100209.31
2022-12-23T07:31:41.293Z,100199.41
2022-12-23T07:34:56.246Z,100187.31
2022-12-23T07:37:58.118Z,100179.00
2022-12-23T07:41:13.216Z,100172.31
2022-12-23T07:44:29.341Z,100173.19
2022-12-23T07:47:38.262Z,100173.06
2022-12-23T07:50:54.272Z,100167.50
2022-12-23T07:53:56.196Z,100174.78
2022-12-23T07:57:11.311Z,100176.44
2022-12-23T08:00:24.223Z,100167.13
2022-12-23T08:03:32.959Z,100177.84
2022-12-23T08:06:42.209Z,100175.94
2022-12-23T08:09:57.206Z,100166.13
2022-12-23T08:13:07.264Z,100169.50
2022-12-23T08:16:22.270Z,100166.19
2022-12-23T08:19:30.272Z,100169.41
2022-12-23T08:22:45.570Z,100162.19
2022-12-23T08:26:08.309Z,100165.03
2022-12-23T08:29:16.226Z,100164.19
2022-12-23T08:32:27.205Z,100161.81
2022-12-23T08:35:42.263Z,100167.25
2022-12-23T08:38:45.218Z,100159.50
2022-12-23T08:42:01.236Z,100163.13
2022-12-23T08:45:10.263Z,100167.38
2022-12-23T08:48:25.345Z,100169.19
2022-12-23T08:51:36.131Z,100166.28
2022-12-23T08:54:51.232Z,100156.00
2022-12-23T08:58:06.405Z,100132.91
2022-12-23T09:01:12.688Z,100118.87
2022-12-23T09:04:27.290Z,100109.22
2022-12-23T09:07:42.242Z,100116.34
2022-12-23T09:10:51.208Z,100120.81
2022-12-23T09:14:02.650Z,100122.88
2022-12-23T09:17:11.266Z,100139.69
2022-12-23T09:20:34.292Z,100135.47
2022-12-23T09:23:49.227Z,100136.41
2022-12-23T09:27:04.328Z,100141.34
2022-12-23T09:30:07.084Z,100142.09
2022-12-23T09:33:23.260Z,100153.22
2022-12-23T09:36:31.974Z,100145.25
2022-12-23T09:39:40.313Z,100143.31
2022-12-23T09:43:15.325Z,100136.31
2022-12-23T09:46:29.362Z,100129.38
2022-12-23T09:49:57.272Z,100116.00
2022-12-23T09:53:12.920Z,100117.91
2022-12-23T09:56:46.446Z,100122.50
2022-12-23T10:00:11.387Z,100134.47
2022-12-23T10:03:26.272Z,100129.75
2022-12-23T10:06:37.359Z,100120.09
2022-12-23T10:09:56.318Z,100103.88
2022-12-23T10:13:02.077Z,100091.09
2022-12-23T10:16:25.430Z,100078.63
2022-12-23T10:19:38.258Z,100085.25
2022-12-23T10:22:53.265Z,100081.50
2022-12-23T10:26:12.394Z,100072.66
2022-12-23T10:29:25.342Z,100071.06
2022-12-23T10:33:01.373Z,100066.81
2022-12-23T10:36:32.825Z,100065.59
2022-12-23T10:40:00.378Z,100057.37
2022-12-23T10:43:26.867Z,100048.75
2022-12-23T10:47:09.369Z,100048.19
2022-12-23T10:50:44.329Z,100048.53
2022-12-23T10:53:59.021Z,100046.72
2022-12-23T10:57:15.300Z,100028.09
2022-12-23T11:00:22.367Z,100034.38
2022-12-23T11:03:42.490Z,100031.94
2022-12-23T11:06:55.844Z,100043.66
2022-12-23T11:10:24.312Z,100050.03
2022-12-23T11:13:36.365Z,100045.56
2022-12-23T11:16:52.400Z,100039.38
2022-12-23T11:20:27.565Z,100048.97
2022-12-23T11:23:36.869Z,100037.03
2022-12-23T11:26:56.305Z,100039.31
2022-12-23T11:29:59.919Z,100029.28
2022-12-23T11:33:32.308Z,100035.66
2022-12-23T11:36:35.142Z,100025.16
2022-12-23T11:39:53.323Z,100024.94
2022-12-23T11:43:09.371Z,100041.22
2022-12-23T11:46:27.738Z,100039.16
2022-12-23T11:49:37.322Z,100042.31
2022-12-23T11:53:08.288Z,100047.72
2022-12-23T11:56:23.359Z,100045.91
2022-12-23T11:59:44.368Z,100037.09
2022-12-23T12:02:56.463Z,100059.09
2022-12-23T12:06:09.352Z,100048.38
2022-12-23T12:09:25.465Z,100035.72
2022-12-23T12:12:41.375Z,100054.16
2022-12-23T12:16:06.484Z,100050.25
2022-12-23T12:19:28.350Z,100058.47
2022-12-23T12:22:51.512Z,100057.87
2022-12-23T12:26:12.371Z,100055.03
2022-12-23T12:29:27.434Z,100055.97
2022-12-23T12:32:50.581Z,100052.06
2022-12-23T12:36:22.591Z,100057.59
2022-12-23T12:39:44.466Z,100061.63
2022-12-23T12:42:55.405Z,100046.69
2022-12-23T12:46:50.358Z,100047.13
2022-12-23T12:50:00.069Z,100038.69
2022-12-23T12:53:24.325Z,100048.09
2022-12-23T12:56:34.044Z,100044.47
2022-12-23T12:59:50.438Z,100043.50
2022-12-23T13:03:27.363Z,100041.16
2022-12-23T13:06:56.645Z,100046.63
2022-12-23T13:10:40.458Z,100054.63
2022-12-23T13:14:19.382Z,100060.53
2022-12-23T13:17:36.149Z,100051.16
2022-12-23T13:20:52.381Z,100051.88
2022-12-23T13:24:36.371Z,100047.37
2022-12-23T13:27:55.544Z,100055.75
2022-12-23T13:31:34.445Z,100052.25
2022-12-23T13:35:03.288Z,100054.91
2022-12-23T13:38:29.467Z,100052.16
2022-12-23T13:41:45.242Z,100050.69
2022-12-23T13:44:54.381Z,100048.62
2022-12-23T13:48:32.416Z,100053.22
2022-12-23T13:52:06.356Z,100052.78
2022-12-23T13:55:26.044Z,100050.69
2022-12-23T13:58:41.462Z,100049.00
2022-12-23T14:01:47.651Z,100049.47
2022-12-23T14:05:09.276Z,100043.69
2022-12-23T14:08:26.923Z,100043.16
2022-12-23T14:11:41.396Z,100050.44
2022-12-23T14:15:03.652Z,100061.84
2022-12-23T14:18:49.521Z,100061.16
2022-12-23T14:22:21.385Z,100058.38
2022-12-23T14:25:57.085Z,100061.06
2022-12-23T14:29:25.378Z,100071.56
2022-12-23T14:32:59.380Z,100062.03
2022-12-23T14:36:23.087Z,100056.94
2022-12-23T14:39:40.421Z,100068.91
2022-12-23T14:42:49.174Z,100066.69
2022-12-23T14:46:27.525Z,100068.84
2022-12-23T14:49:41.168Z,100067.66
2022-12-23T14:53:06.373Z,100083.16
2022-12-23T14:57:01.412Z,100068.69
2022-12-23T15:00:05.740Z,100062.56
2022-12-23T15:03:22.558Z,100062.25
2022-12-23T15:06:40.406Z,100073.94
2022-12-23T15:10:00.731Z,100054.25
2022-12-23T15:13:10.406Z,100077.06
2022-12-23T15:16:26.465Z,100084.84
2022-12-23T15:19:35.504Z,100098.94
2022-12-23T15:22:51.229Z,100116.50
2022-12-23T15:26:04.426Z,100108.97
2022-12-23T15:29:14.445Z,100106.22
2022-12-23T15:32:23.474Z,100089.75
2022-12-23T15:35:35.820Z,100095.16
2022-12-23T15:38:45.481Z,100106.31
2022-12-23T15:42:00.420Z,100089.09
2022-12-23T15:45:33.550Z,100085.47
2022-12-23T15:48:48.470Z,100099.97
2022-12-23T15:52:12.025Z,100092.22
2022-12-23T15:55:28.998Z,100082.66
2022-12-23T15:58:47.610Z,100075.63
2022-12-23T16:01:51.437Z,100075.19
2022-12-23T16:05:09.417Z,100084.19
2022-12-23T16:08:33.542Z,100078.25
2022-12-23T16:11:56.126Z,100088.47
2022-12-23T16:15:27.522Z,100084.13
2022-12-23T16:18:29.846Z,100089.47
2022-12-23T16:21:44.478Z,100084.44
2022-12-23T16:24:51.950Z,100091.19
2022-12-23T16:28:19.467Z,100086.84
2022-12-23T16:31:34.506Z,100079.56
2022-12-23T16:34:48.548Z,100084.87
2022-12-23T16:38:11.525Z,100080.91
2022-12-23T16:41:19.732Z,100090.94
2022-12-23T16:44:34.565Z,100082.22
2022-12-23T16:47:43.467Z,100079.81
2022-12-23T16:51:02.430Z,100079.69
2022-12-23T16:54:10.573Z,100090.22
2022-12-23T16:57:25.520Z,100071.81
2022-12-23T17:00:35.650Z,100073.38
2022-12-23T17:03:50.513Z,100064.81
2022-12-23T17:06:59.148Z,100059.38
2022-12-23T17:10:07.465Z,100072.97
2022-12-23T17:13:18.788Z,100078.56
2022-12-23T17:16:29.580Z,100069.22
2022-12-23T17:19:44.455Z,100074.41
2022-12-23T17:22:57.514Z,100062.94
2022-12-23T17:26:12.475Z,100068.97
2022-12-23T17:29:21.757Z,100063.38
2022-12-23T17:32:36.577Z,100060.00
2022-12-23T17:35:38.482Z,100065.59
2022-12-23T17:38:53.538Z,100064.22
2022-12-23T17:42:03.142Z,100060.00
2022-12-23T17:45:35.571Z,100062.38
2022-12-23T17:48:38.189Z,100050.16
2022-12-23T17:51:52.483Z,100058.69
2022-12-23T17:54:54.784Z,100066.59
2022-12-23T17:58:09.513Z,100059.16
2022-12-23T18:01:29.630Z,100064.16
2022-12-23T18:04:38.256Z,100057.16
2022-12-23T18:07:46.481Z,100070.19
2022-12-23T18:10:58.235Z,100063.06
2022-12-23T18:14:21.634Z,100066.44
2022-12-23T18:17:23.573Z,100058.66
2022-12-23T18:20:41.504Z,100048.72
2022-12-23T18:23:57.535Z,100052.34
2022-12-23T18:27:23.564Z,100054.97
2022-12-23T18:30:33.578Z,100047.09
2022-12-23T18:33:42.288Z,100044.75
2022-12-23T18:36:57.472Z,100044.47
2022-12-23T18:39:59.342Z,100050.59
2022-12-23T18:43:25.532Z,100055.94
2022-12-23T18:46:33.554Z,100063.28
2022-12-23T18:49:48.558Z,100057.81
2022-12-23T18:52:51.013Z,100062.84
2022-12-23T18:56:05.557Z,100066.16
2022-12-23T18:59:29.212Z,100070.84
2022-12-23T19:02:47.623Z,100061.59
2022-12-23T19:06:00.719Z,100061.59
2022-12-23T19:09:16.389Z,100066.41
2022-12-23T19:12:25.643Z,100072.97
2022-12-23T19:15:34.486Z,100086.16
2022-12-23T19:18:43.718Z,100083.12
2022-12-23T19:22:05.513Z,100080.13
2022-12-23T19:25:23.619Z,100076.75
2022-12-23T19:28:32.586Z,100088.78
2022-12-23T19:31:41.336Z,100091.91
2022-12-23T19:34:50.562Z,100106.31
2022-12-23T19:37:59.437Z,100098.34
2022-12-23T19:41:09.560Z,100096.12
2022-12-23T19:44:18.449Z,100104.53
2022-12-23T19:47:26.573Z,100101.87
2022-12-23T19:50:35.877Z,100093.88
2022-12-23T19:53:46.539Z,100099.19
2022-12-23T19:57:01.574Z,100105.06
2022-12-23T20:00:11.553Z,100102.84
2022-12-23T20:03:26.814Z,100108.69
2022-12-23T20:06:40.597Z,100111.84
2022-12-23T20:09:55.597Z,100120.06
2022-12-23T20:13:03.541Z,100125.41
2022-12-23T20:16:13.245Z,100122.75
2022-12-23T20:19:28.771Z,100131.72
2022-12-23T20:22:50.600Z,100117.41
2022-12-23T20:25:59.824Z,100107.16
2022-12-23T20:29:08.643Z,100107.28
2022-12-23T20:32:17.680Z,100104.34
2022-12-23T20:35:25.709Z,100085.16
2022-12-23T20:38:42.278Z,100082.94
2022-12-23T20:41:50.735Z,100080.06
2022-12-23T20:44:59.468Z,100073.03
2022-12-23T20:48:08.774Z,100066.22
2022-12-23T20:51:26.607Z,100064.66
2022-12-23T20:54:35.383Z,100063.09
2022-12-23T20:57:43.709Z,100053.16
2022-12-23T21:00:58.600Z,100060.41
2022-12-23T21:04:17.652Z,100064.53
2022-12-23T21:07:26.605Z,100071.13
2022-12-23T21:10:37.553Z,100056.06
2022-12-23T21:13:58.684Z,100058.66
2022-12-23T21:17:09.229Z,100061.25
2022-12-23T21:20:24.641Z,100060.97
2022-12-23T21:23:44.847Z,100073.84
2022-12-23T21:26:56.490Z,100075.28
2022-12-23T21:30:05.623Z,100059.28
2022-12-23T21:33:21.648Z,100046.09
2022-12-23T21:36:34.666Z,100043.53
2022-12-23T21:39:43.286Z,100046.19
2022-12-23T21:42:51.688Z,100038.47
2022-12-23T21:46:03.747Z,100038.34
2022-12-23T21:49:12.611Z,100039.88
2022-12-23T21:52:27.635Z,100027.22
2022-12-23T21:55:29.511Z,100036.06
2022-12-23T21:58:45.722Z,100022.59
2022-12-23T22:01:47.950Z,100014.34
2022-12-23T22:05:02.666Z,100022.09
2022-12-23T22:08:04.585Z,100014.94
2022-12-23T22:11:24.631Z,99996.69
2022-12-23T22:14:39.625Z,99992.06
2022-12-23T22:17:48.452Z,99981.41
2022-12-23T22:21:00.775Z,99973.84
2022-12-23T22:24:22.631Z,99963.00
2022-12-23T22:27:24.793Z,99961.63
2022-12-23T22:30:39.682Z,99947.59
2022-12-23T22:33:48.254Z,99948.72
2022-12-23T22:37:02.666Z,99952.22
2022-12-23T22:40:18.660Z,99944.38
2022-12-23T22:43:27.255Z,99954.50
2022-12-23T22:46:41.685Z,99948.34
2022-12-23T22:49:43.847Z,99938.94
2022-12-23T22:52:58.665Z,99943.41
2022-12-23T22:56:08.105Z,99947.31
2022-12-23T22:59:29.634Z,99935.00
2022-12-23T23:02:31.875Z,99939.47
2022-12-23T23:05:46.709Z,99929.78
2022-12-23T23:08:56.723Z,99927.94
2022-12-23T23:12:11.682Z,99935.94
2022-12-23T23:15:26.644Z,99933.28
2022-12-23T23:18:29.611Z,99928.53
2022-12-23T23:21:45.686Z,99935.69
2022-12-23T23:25:00.746Z,99934.72
2022-12-23T23:28:15.657Z,99935.56
2022-12-23T23:31:41.422Z,99932.19
2022-12-23T23:34:52.704Z,99940.91
2022-12-23T23:38:07.673Z,99953.56
2022-12-23T23:41:09.949Z,99945.38
2022-12-23T23:44:24.645Z,99950.03
2022-12-23T23:47:32.659Z,99939.34
2022-12-23T23:50:49.670Z,99926.25
2022-12-23T23:53:51.745Z,99917.16
2022-12-23T23:57:06.965Z,99915.19
